createdAt,value
2022-07-29T00:04:16.173Z,3.30
2022-07-29T00:09:20.321Z,3.30
2022-07-29T00:14:24.216Z,4.03
2022-07-29T00:19:30.203Z,3.40
2022-07-29T00:24:37.550Z,3.22
2022-07-29T00:29:41.991Z,3.20
2022-07-29T00:35:13.045Z,3.10
2022-07-29T00:40:17.357Z,3.30
2022-07-29T00:45:23.289Z,3.10
2022-07-29T00:50:29.349Z,3.05
2022-07-29T00:55:33.931Z,3.03
2022-07-29T01:00:38.300Z,3.20
2022-07-29T01:05:48.554Z,3.55
2022-07-29T01:10:56.600Z,2.95
2022-07-29T01:16:06.430Z,3.28
2022-07-29T01:21:38.102Z,2.95
2022-07-29T01:26:51.033Z,3.40
2022-07-29T01:32:01.969Z,2.95
2022-07-29T01:37:14.260Z,3.30
2022-07-29T01:42:26.224Z,3.28
2022-07-29T01:47:37.421Z,3.10
2022-07-29T01:52:47.490Z,2.83
2022-07-29T01:57:52.188Z,3.40
2022-07-29T02:03:01.495Z,3.13
2022-07-29T02:08:08.135Z,3.15
2022-07-29T02:13:15.869Z,3.05
2022-07-29T02:18:25.307Z,3.20
2022-07-29T02:23:30.030Z,3.20
2022-07-29T02:28:36.518Z,3.00
2022-07-29T02:33:44.199Z,3.20
2022-07-29T02:38:54.727Z,3.00
2022-07-29T02:44:01.493Z,2.75
2022-07-29T02:49:12.783Z,2.80
2022-07-29T02:54:26.393Z,2.80
2022-07-29T02:59:57.867Z,3.03
2022-07-29T03:05:04.517Z,2.88
2022-07-29T03:10:13.714Z,3.10
2022-07-29T03:15:18.331Z,2.97
2022-07-29T03:20:24.383Z,2.90
2022-07-29T03:25:28.669Z,2.95
2022-07-29T03:30:32.824Z,2.72
2022-07-29T03:35:38.217Z,3.10
2022-07-29T03:40:49.029Z,3.22
2022-07-29T03:45:56.798Z,3.00
2022-07-29T03:51:02.187Z,3.17
2022-07-29T03:56:09.112Z,3.20
2022-07-29T04:01:14.237Z,3.08
2022-07-29T04:06:19.657Z,3.00
2022-07-29T04:11:24.189Z,2.80
2022-07-29T04:16:28.542Z,3.17
2022-07-29T04:21:39.271Z,4.10
2022-07-29T04:26:46.197Z,4.05
2022-07-29T04:31:50.233Z,5.45
2022-07-29T04:36:55.717Z,6.00
2022-07-29T04:41:59.717Z,4.93
2022-07-29T04:47:03.900Z,4.40
2022-07-29T04:52:09.806Z,3.92
2022-07-29T04:57:14.399Z,3.70
2022-07-29T05:02:18.518Z,3.55
2022-07-29T05:07:23.929Z,3.67
2022-07-29T05:12:28.839Z,3.33
2022-07-29T05:17:33.417Z,3.13
2022-07-29T05:22:39.125Z,2.95
2022-07-29T05:27:43.734Z,2.65
2022-07-29T05:32:48.674Z,3.10
2022-07-29T05:37:54.222Z,2.70
2022-07-29T05:42:58.726Z,3.00
2022-07-29T05:48:04.034Z,2.97
2022-07-29T05:53:19.858Z,3.10
2022-07-29T05:58:25.048Z,4.88
2022-07-29T06:03:29.782Z,3.00
2022-07-29T06:08:36.417Z,3.10
2022-07-29T06:13:41.140Z,3.00
2022-07-29T06:18:45.622Z,2.83
2022-07-29T06:23:51.587Z,2.60
2022-07-29T06:28:56.810Z,2.65
2022-07-29T06:34:01.554Z,2.20
2022-07-29T06:39:09.893Z,2.42
2022-07-29T06:44:16.912Z,2.80
2022-07-29T06:49:21.806Z,2.50
2022-07-29T06:54:27.809Z,3.15
2022-07-29T06:59:35.728Z,2.53
2022-07-29T07:04:41.107Z,2.70
2022-07-29T07:09:47.368Z,2.50
2022-07-29T07:14:52.663Z,2.47
2022-07-29T07:19:57.352Z,2.92
2022-07-29T07:25:03.434Z,2.60
2022-07-29T07:30:09.966Z,2.80
2022-07-29T07:35:15.947Z,2.50
2022-07-29T07:40:22.167Z,2.47
2022-07-29T07:45:27.968Z,2.63
2022-07-29T07:50:33.201Z,2.72
2022-07-29T08:01:07.869Z,2.90
2022-07-29T08:06:12.520Z,2.50
2022-07-29T08:11:18.446Z,2.83
2022-07-29T08:16:22.863Z,3.42
2022-07-29T08:21:27.809Z,2.53
2022-07-29T08:26:33.784Z,2.95
2022-07-29T08:31:38.620Z,2.67
2022-07-29T08:36:43.281Z,2.90
2022-07-29T08:41:56.716Z,2.92
2022-07-29T08:47:02.881Z,3.03
2022-07-29T08:52:08.309Z,3.50
2022-07-29T08:57:16.809Z,2.80
2022-07-29T09:02:25.024Z,3.00
2022-07-29T09:07:34.628Z,3.25
2022-07-29T09:12:41.277Z,3.00
2022-07-29T09:17:47.415Z,3.13
2022-07-29T09:22:54.549Z,4.07
2022-07-29T09:28:09.466Z,3.50
2022-07-29T09:33:13.813Z,3.15
2022-07-29T09:38:18.643Z,3.72
2022-07-29T09:43:25.042Z,3.25
2022-07-29T09:48:29.771Z,3.83
2022-07-29T09:53:36.380Z,3.70
2022-07-29T09:58:42.542Z,3.10
2022-07-29T10:03:55.987Z,3.47
2022-07-29T10:09:10.738Z,3.45
2022-07-29T10:14:17.888Z,3.65
2022-07-29T10:19:22.811Z,3.20
2022-07-29T10:24:28.619Z,3.80
2022-07-29T10:29:35.523Z,3.67
2022-07-29T10:35:00.368Z,3.65
2022-07-29T10:40:28.545Z,3.63
2022-07-29T10:45:34.840Z,3.65
2022-07-29T10:51:00.074Z,3.83
2022-07-29T10:56:06.390Z,4.20
2022-07-29T11:01:37.126Z,3.92
2022-07-29T11:07:13.441Z,3.75
2022-07-29T11:12:49.292Z,3.45
2022-07-29T11:18:15.228Z,4.00
2022-07-29T11:23:28.306Z,4.15
2022-07-29T11:28:42.310Z,3.47
2022-07-29T11:33:55.931Z,3.42
2022-07-29T11:39:36.494Z,3.20
2022-07-29T11:44:57.549Z,3.33
2022-07-29T11:50:05.335Z,3.17
2022-07-29T11:55:17.253Z,3.35
2022-07-29T12:00:27.691Z,3.40
2022-07-29T12:05:48.424Z,3.67
2022-07-29T12:10:56.114Z,3.20
2022-07-29T12:16:02.460Z,3.20
2022-07-29T12:21:09.533Z,3.30
2022-07-29T12:26:25.353Z,2.90
2022-07-29T12:31:43.988Z,3.00
2022-07-29T12:36:52.126Z,3.03
2022-07-29T12:42:04.567Z,3.30
2022-07-29T12:47:09.830Z,3.10
2022-07-29T12:52:33.156Z,3.40
2022-07-29T12:57:49.290Z,2.88
2022-07-29T13:02:58.876Z,2.97
2022-07-29T13:08:21.957Z,3.25
2022-07-29T13:13:26.959Z,3.35
2022-07-29T13:18:33.261Z,3.30
2022-07-29T13:23:38.869Z,3.10
2022-07-29T13:28:44.149Z,3.33
2022-07-29T13:33:49.449Z,3.30
2022-07-29T13:38:55.769Z,3.00
2022-07-29T13:43:59.853Z,3.35
2022-07-29T13:49:04.096Z,3.33
2022-07-29T13:54:09.991Z,3.08
2022-07-29T13:59:14.743Z,3.40
2022-07-29T14:04:18.950Z,2.97
2022-07-29T14:09:25.748Z,3.25
2022-07-29T14:14:30.085Z,3.20
2022-07-29T14:19:36.871Z,2.90
2022-07-29T14:24:42.629Z,2.97
2022-07-29T14:29:47.385Z,3.42
2022-07-29T14:34:52.712Z,3.20
2022-07-29T14:40:00.773Z,3.70
2022-07-29T14:45:08.915Z,2.80
2022-07-29T14:50:15.624Z,3.40
2022-07-29T14:55:23.386Z,2.92
2022-07-29T15:00:28.129Z,2.72
2022-07-29T15:05:33.661Z,3.10
2022-07-29T15:10:41.010Z,3.00
2022-07-29T15:15:45.802Z,3.05
2022-07-29T15:20:50.112Z,2.90
2022-07-29T15:25:55.959Z,2.97
2022-07-29T15:31:00.254Z,3.00
2022-07-29T15:36:05.917Z,3.08
2022-07-29T15:41:11.594Z,3.15
2022-07-29T15:46:33.000Z,2.97
2022-07-29T15:51:37.379Z,3.05
2022-07-29T15:56:43.110Z,3.38
2022-07-29T16:01:47.296Z,3.53
2022-07-29T16:06:51.829Z,3.10
2022-07-29T16:11:57.344Z,3.10
2022-07-29T16:17:03.887Z,3.40
2022-07-29T16:22:08.125Z,3.47
2022-07-29T16:27:13.564Z,3.45
2022-07-29T16:32:22.278Z,3.30
2022-07-29T16:37:33.625Z,3.83
2022-07-29T16:42:47.360Z,3.67
2022-07-29T16:47:52.039Z,3.60
2022-07-29T16:52:56.773Z,3.85
2022-07-29T16:58:04.517Z,4.22
2022-07-29T17:03:09.637Z,3.92
2022-07-29T17:08:15.678Z,3.90
2022-07-29T17:13:22.103Z,4.38
2022-07-29T17:18:26.233Z,3.85
2022-07-29T17:23:31.032Z,4.20
2022-07-29T17:28:36.738Z,3.40
2022-07-29T17:33:41.104Z,3.83
2022-07-29T17:38:45.080Z,3.83
2022-07-29T17:43:50.992Z,3.63
2022-07-29T17:48:57.132Z,3.55
2022-07-29T17:54:01.327Z,3.70
2022-07-29T17:59:10.236Z,4.05
2022-07-29T18:04:15.805Z,4.07
2022-07-29T18:09:20.191Z,4.40
2022-07-29T18:14:25.690Z,4.47
2022-07-29T18:19:30.068Z,4.85
2022-07-29T18:24:35.981Z,5.45
2022-07-29T18:29:41.720Z,5.30
2022-07-29T18:34:45.952Z,7.00
2022-07-29T18:39:53.728Z,6.20
2022-07-29T18:45:00.543Z,6.53
2022-07-29T18:50:09.528Z,6.65
2022-07-29T18:55:14.187Z,7.60
2022-07-29T19:00:20.787Z,9.20
2022-07-29T19:05:26.510Z,8.20
2022-07-29T19:10:31.250Z,8.95
2022-07-29T19:15:37.824Z,9.70
2022-07-29T19:20:43.417Z,9.80
2022-07-29T19:25:53.589Z,10.30
2022-07-29T19:31:00.935Z,10.52
2022-07-29T19:36:05.498Z,10.88
2022-07-29T19:41:09.930Z,10.05
2022-07-29T19:46:16.172Z,12.57
2022-07-29T19:51:20.450Z,10.18
2022-07-29T19:56:26.963Z,12.38
2022-07-29T20:01:34.314Z,10.93
2022-07-29T20:06:38.545Z,12.48
2022-07-29T20:11:42.996Z,13.32
2022-07-29T20:16:48.490Z,15.23
2022-07-29T20:21:56.647Z,14.98
2022-07-29T20:27:01.168Z,16.15
2022-07-29T20:32:07.904Z,16.88
2022-07-29T20:37:14.772Z,18.38
2022-07-29T20:42:19.603Z,18.90
2022-07-29T20:47:25.316Z,19.02
2022-07-29T20:52:30.422Z,19.52
2022-07-29T20:57:38.687Z,18.33
2022-07-29T21:02:47.624Z,17.45
2022-07-29T21:07:56.508Z,17.80
2022-07-29T21:13:04.534Z,17.52
2022-07-29T21:18:26.964Z,17.90
2022-07-29T21:23:32.599Z,16.52
2022-07-29T21:28:40.207Z,15.70
2022-07-29T21:33:48.070Z,18.23
2022-07-29T21:38:53.193Z,16.60
2022-07-29T21:43:58.211Z,17.85
2022-07-29T21:49:05.589Z,17.73
2022-07-29T21:54:09.460Z,18.42
2022-07-29T21:59:14.472Z,18.58
2022-07-29T22:04:20.294Z,18.90
2022-07-29T22:09:24.343Z,18.42
2022-07-29T22:14:28.718Z,17.95
2022-07-29T22:19:34.930Z,19.65
2022-07-29T22:24:39.628Z,19.13
2022-07-29T22:29:44.361Z,18.23
2022-07-29T22:34:49.734Z,17.90
2022-07-29T22:39:53.644Z,16.05
2022-07-29T22:44:57.636Z,17.58
2022-07-29T22:50:03.458Z,17.13
2022-07-29T22:55:08.678Z,17.02
2022-07-29T23:00:15.071Z,16.50
2022-07-29T23:05:20.461Z,15.93
2022-07-29T23:10:24.433Z,16.30
2022-07-29T23:15:29.084Z,16.20
2022-07-29T23:20:34.631Z,17.50
2022-07-29T23:25:38.801Z,16.85
2022-07-29T23:30:42.922Z,16.83
2022-07-29T23:35:48.145Z,16.13
2022-07-29T23:40:52.451Z,14.43
2022-07-29T23:45:58.087Z,14.43
2022-07-29T23:51:03.539Z,15.23
2022-07-29T23:56:08.195Z,15.20
